createdAt,value
2018-07-19T00:01:27.571Z,99.90
2018-07-19T00:03:56.016Z,99.90
2018-07-19T00:06:24.443Z,99.90
2018-07-19T00:08:52.891Z,99.90
2018-07-19T00:11:21.322Z,99.90
2018-07-19T00:13:49.784Z,99.90
2018-07-19T00:16:18.216Z,99.90
2018-07-19T00:18:46.679Z,99.90
2018-07-19T00:21:15.102Z,99.90
2018-07-19T00:23:43.515Z,99.90
2018-07-19T00:26:11.983Z,99.90
2018-07-19T00:28:40.408Z,99.90
2018-07-19T00:31:08.864Z,99.90
2018-07-19T00:33:37.275Z,99.90
2018-07-19T00:36:05.707Z,99.90
2018-07-19T00:38:34.128Z,99.90
2018-07-19T00:41:02.581Z,99.90
2018-07-19T00:43:31.010Z,99.90
2018-07-19T00:45:59.448Z,99.90
2018-07-19T00:48:27.892Z,99.90
2018-07-19T00:50:56.331Z,99.90
2018-07-19T00:53:24.752Z,99.90
2018-07-19T00:55:53.196Z,99.90
2018-07-19T00:58:21.629Z,99.90
2018-07-19T01:00:50.068Z,99.90
2018-07-19T01:03:18.504Z,99.90
2018-07-19T01:05:46.939Z,99.90
2018-07-19T01:08:15.387Z,99.90
2018-07-19T01:10:43.866Z,99.90
2018-07-19T01:13:12.284Z,99.90
2018-07-19T01:15:40.692Z,99.90
2018-07-19T01:18:09.132Z,99.90
2018-07-19T01:20:37.590Z,99.90
2018-07-19T01:23:06.040Z,99.90
2018-07-19T01:25:34.514Z,99.90
2018-07-19T01:28:02.971Z,99.90
2018-07-19T01:30:31.394Z,99.90
2018-07-19T01:32:59.814Z,99.90
2018-07-19T01:35:28.240Z,99.90
2018-07-19T01:37:56.685Z,99.90
2018-07-19T01:40:25.101Z,99.90
2018-07-19T01:42:53.528Z,99.90
2018-07-19T01:45:21.935Z,99.90
2018-07-19T01:47:50.387Z,99.90
2018-07-19T01:50:18.831Z,99.90
2018-07-19T01:52:47.259Z,99.90
2018-07-19T01:55:15.668Z,99.90
2018-07-19T01:57:44.112Z,99.90
2018-07-19T02:00:12.610Z,99.90
2018-07-19T02:02:41.000Z,99.90
2018-07-19T02:05:09.468Z,99.90
2018-07-19T02:07:37.949Z,99.90
2018-07-19T02:10:06.415Z,99.90
2018-07-19T02:12:34.853Z,99.90
2018-07-19T02:15:03.344Z,99.90
2018-07-19T02:17:31.768Z,99.90
2018-07-19T02:20:00.217Z,99.90
2018-07-19T02:22:28.647Z,99.90
2018-07-19T02:24:57.183Z,99.90
2018-07-19T02:27:25.596Z,99.90
2018-07-19T02:29:54.033Z,99.90
2018-07-19T02:32:22.457Z,99.90
2018-07-19T02:34:50.891Z,99.90
2018-07-19T02:37:19.328Z,99.90
2018-07-19T02:39:47.769Z,99.90
2018-07-19T02:42:22.527Z,99.90
2018-07-19T02:44:51.011Z,99.90
2018-07-19T02:47:19.418Z,99.90
2018-07-19T02:49:47.836Z,99.90
2018-07-19T02:52:16.255Z,99.90
2018-07-19T02:54:44.721Z,99.90
2018-07-19T02:59:41.276Z,99.90
2018-07-19T03:02:09.734Z,99.90
2018-07-19T03:04:38.168Z,99.90
2018-07-19T03:07:06.647Z,99.90
2018-07-19T03:09:35.075Z,99.90
2018-07-19T03:12:03.528Z,99.90
2018-07-19T03:14:31.956Z,99.90
2018-07-19T03:17:00.387Z,99.90
2018-07-19T03:19:28.799Z,99.90
2018-07-19T03:21:57.252Z,99.90
2018-07-19T03:24:25.682Z,99.90
2018-07-19T03:29:22.271Z,99.90
2018-07-19T03:31:50.695Z,99.90
2018-07-19T03:34:19.157Z,99.90
2018-07-19T03:36:47.580Z,99.90
2018-07-19T03:39:16.048Z,99.90
2018-07-19T03:41:44.482Z,99.90
2018-07-19T03:44:12.940Z,99.90
2018-07-19T03:46:41.395Z,99.90
2018-07-19T03:49:09.853Z,99.90
2018-07-19T03:51:38.324Z,99.90
2018-07-19T03:54:06.827Z,99.90
2018-07-19T03:56:35.267Z,99.90
2018-07-19T03:59:03.787Z,99.90
2018-07-19T04:01:38.592Z,99.90
2018-07-19T04:04:07.074Z,99.90
2018-07-19T04:06:35.527Z,99.90
2018-07-19T04:09:05.883Z,99.90
2018-07-19T04:11:34.326Z,99.90
2018-07-19T04:14:02.792Z,99.90
2018-07-19T04:16:31.207Z,99.90
2018-07-19T04:18:59.691Z,99.90
2018-07-19T04:21:28.123Z,99.90
2018-07-19T04:23:56.560Z,99.90
2018-07-19T04:26:25.056Z,99.90
2018-07-19T04:28:53.487Z,99.90
2018-07-19T04:31:21.953Z,99.90
2018-07-19T04:33:50.457Z,99.90
2018-07-19T04:38:47.049Z,99.90
2018-07-19T04:41:15.511Z,99.90
2018-07-19T04:43:43.946Z,99.90
2018-07-19T04:46:12.391Z,99.90
2018-07-19T04:48:40.833Z,99.90
2018-07-19T04:51:09.311Z,99.90
2018-07-19T04:53:37.747Z,99.90
2018-07-19T04:56:06.224Z,99.90
2018-07-19T04:58:34.661Z,99.90
2018-07-19T05:01:03.125Z,99.90
2018-07-19T05:03:31.552Z,99.90
2018-07-19T05:05:59.991Z,99.90
2018-07-19T05:08:28.425Z,99.90
2018-07-19T05:10:56.892Z,99.90
2018-07-19T05:13:25.355Z,99.90
2018-07-19T05:15:53.797Z,99.90
2018-07-19T05:18:22.251Z,99.90
2018-07-19T05:20:57.428Z,99.90
2018-07-19T05:23:25.912Z,99.90
2018-07-19T05:25:54.339Z,99.90
2018-07-19T05:28:22.774Z,99.90
2018-07-19T05:30:51.192Z,99.90
2018-07-19T05:33:19.644Z,99.90
2018-07-19T05:35:48.279Z,99.90
2018-07-19T05:38:16.771Z,99.90
2018-07-19T05:40:45.203Z,99.90
2018-07-19T05:43:13.655Z,99.90
2018-07-19T05:45:42.104Z,99.90
2018-07-19T05:48:10.548Z,99.90
2018-07-19T05:50:39.375Z,99.90
2018-07-19T05:53:07.891Z,99.90
2018-07-19T05:55:36.350Z,99.90
2018-07-19T05:58:04.832Z,99.60
2018-07-19T06:00:33.300Z,97.90
2018-07-19T06:03:01.764Z,96.30
2018-07-19T06:05:30.232Z,95.30
2018-07-19T06:07:58.717Z,94.10
2018-07-19T06:10:27.141Z,93.00
2018-07-19T06:12:55.700Z,91.70
2018-07-19T06:15:24.123Z,91.20
2018-07-19T06:17:52.573Z,91.40
2018-07-19T06:20:21.028Z,90.70
2018-07-19T06:25:17.647Z,88.00
2018-07-19T06:27:46.094Z,86.20
2018-07-19T06:30:14.580Z,82.40
2018-07-19T06:32:43.015Z,80.50
2018-07-19T06:35:11.490Z,76.30
2018-07-19T06:37:39.928Z,75.40
2018-07-19T06:40:08.375Z,71.60
2018-07-19T06:42:36.813Z,72.60
2018-07-19T06:45:05.343Z,65.60
2018-07-19T06:47:33.772Z,63.60
2018-07-19T06:50:02.236Z,60.00
2018-07-19T06:52:30.699Z,61.20
2018-07-19T06:54:59.164Z,58.40
2018-07-19T06:57:27.622Z,56.90
2018-07-19T06:59:56.145Z,57.70
2018-07-19T07:04:52.943Z,55.30
2018-07-19T07:07:21.640Z,56.50
2018-07-19T07:09:50.065Z,56.20
2018-07-19T07:12:18.597Z,57.40
2018-07-19T07:14:47.072Z,56.20
2018-07-19T07:17:15.531Z,56.40
2018-07-19T07:19:43.980Z,56.80
2018-07-19T07:22:12.443Z,54.50
2018-07-19T07:24:40.884Z,55.10
2018-07-19T07:27:09.339Z,55.80
2018-07-19T07:29:37.757Z,55.50
2018-07-19T07:32:06.318Z,56.40
2018-07-19T07:34:34.773Z,56.40
2018-07-19T07:37:03.232Z,55.60
2018-07-19T07:39:31.716Z,56.20
2018-07-19T07:42:00.172Z,54.80
2018-07-19T07:44:28.615Z,55.40
2018-07-19T07:46:57.108Z,53.40
2018-07-19T07:49:25.544Z,53.20
2018-07-19T07:51:53.967Z,52.40
2018-07-19T07:54:22.411Z,53.10
2018-07-19T07:56:50.846Z,53.20
2018-07-19T07:59:19.346Z,51.40
2018-07-19T08:01:47.783Z,51.90
2018-07-19T08:04:16.251Z,51.70
2018-07-19T08:06:44.675Z,51.40
2018-07-19T08:09:13.160Z,52.10
2018-07-19T08:11:41.603Z,52.70
2018-07-19T08:14:10.086Z,52.20
2018-07-19T08:16:38.593Z,52.90
2018-07-19T08:19:07.079Z,54.00
2018-07-19T08:24:03.771Z,52.40
2018-07-19T08:26:32.256Z,52.30
2018-07-19T08:29:00.767Z,53.30
2018-07-19T08:31:29.200Z,53.20
2018-07-19T08:33:57.688Z,52.40
2018-07-19T08:36:26.148Z,52.60
2018-07-19T08:38:54.604Z,50.70
2018-07-19T08:41:23.080Z,50.20
2018-07-19T08:43:51.532Z,51.70
2018-07-19T08:46:20.032Z,52.40
2018-07-19T08:48:48.487Z,51.10
2018-07-19T08:51:16.960Z,50.30
2018-07-19T08:53:45.418Z,50.70
2018-07-19T08:56:13.885Z,49.70
2018-07-19T08:58:42.357Z,51.70
2018-07-19T09:01:10.875Z,48.90
2018-07-19T09:03:39.322Z,49.50
2018-07-19T09:06:07.827Z,48.80
2018-07-19T09:08:36.328Z,48.90
2018-07-19T09:11:04.968Z,49.90
2018-07-19T09:13:33.409Z,51.00
2018-07-19T09:16:01.877Z,52.00
2018-07-19T09:18:30.320Z,51.20
2018-07-19T09:20:58.816Z,50.80
2018-07-19T09:23:27.263Z,48.80
2018-07-19T09:25:55.740Z,49.40
2018-07-19T09:28:24.189Z,50.40
2018-07-19T09:30:52.704Z,51.20
2018-07-19T09:33:21.582Z,50.70
2018-07-19T09:35:50.292Z,51.80
2018-07-19T09:38:18.962Z,53.20
2018-07-19T09:40:47.519Z,51.90
2018-07-19T09:43:16.144Z,50.50
2018-07-19T09:45:44.622Z,50.60
2018-07-19T09:48:13.090Z,50.90
2018-07-19T09:50:41.572Z,48.20
2018-07-19T09:53:10.029Z,48.80
2018-07-19T09:55:38.474Z,47.40
2018-07-19T09:58:06.953Z,44.90
2018-07-19T10:00:40.728Z,46.20
2018-07-19T10:03:09.184Z,47.00
2018-07-19T10:05:37.710Z,45.30
2018-07-19T10:08:06.161Z,45.10
2018-07-19T10:10:34.617Z,45.40
2018-07-19T10:13:03.061Z,45.70
2018-07-19T10:15:31.529Z,46.60
2018-07-19T10:17:59.969Z,47.10
2018-07-19T10:20:28.392Z,46.30
2018-07-19T10:22:56.943Z,45.90
2018-07-19T10:25:25.387Z,45.70
2018-07-19T10:27:53.816Z,45.40
2018-07-19T10:30:22.263Z,46.60
2018-07-19T10:32:50.703Z,46.40
2018-07-19T10:35:19.172Z,45.90
2018-07-19T10:37:47.616Z,44.80
2018-07-19T10:40:16.070Z,45.30
2018-07-19T10:42:44.555Z,44.60
2018-07-19T10:45:13.007Z,46.50
2018-07-19T10:47:41.476Z,46.60
2018-07-19T10:50:09.936Z,45.70
2018-07-19T10:52:38.355Z,46.30
2018-07-19T10:55:06.828Z,45.90
2018-07-19T10:57:35.349Z,45.90
2018-07-19T11:00:04.004Z,44.90
2018-07-19T11:02:32.407Z,45.30
2018-07-19T11:05:00.844Z,44.40
2018-07-19T11:07:29.338Z,43.40
2018-07-19T11:09:57.844Z,45.00
2018-07-19T11:12:26.260Z,44.10
2018-07-19T11:14:54.716Z,43.60
2018-07-19T11:17:23.160Z,43.70
2018-07-19T11:19:51.588Z,42.50
2018-07-19T11:22:20.059Z,44.20
2018-07-19T11:24:48.484Z,43.90
2018-07-19T11:27:16.942Z,42.40
2018-07-19T11:29:45.368Z,41.70
2018-07-19T11:32:13.815Z,41.90
2018-07-19T11:34:42.240Z,43.00
2018-07-19T11:37:10.688Z,42.50
2018-07-19T11:39:39.123Z,41.30
2018-07-19T11:42:07.583Z,41.20
2018-07-19T11:44:36.040Z,42.10
2018-07-19T11:47:04.542Z,41.00
2018-07-19T11:49:32.973Z,40.60
2018-07-19T11:52:01.455Z,40.90
2018-07-19T11:54:29.891Z,42.90
2018-07-19T11:56:58.349Z,40.80
2018-07-19T11:59:26.774Z,40.70
2018-07-19T12:01:55.227Z,40.30
2018-07-19T12:04:23.664Z,39.40
2018-07-19T12:06:52.087Z,41.60
2018-07-19T12:09:20.540Z,40.50
2018-07-19T12:11:48.956Z,39.70
2018-07-19T12:14:17.391Z,40.00
2018-07-19T12:16:45.807Z,39.70
2018-07-19T12:19:14.241Z,40.40
2018-07-19T12:21:42.652Z,40.00
2018-07-19T12:24:11.088Z,41.20
2018-07-19T12:29:07.681Z,41.30
2018-07-19T12:31:36.113Z,40.30
2018-07-19T12:34:04.565Z,41.00
2018-07-19T12:36:33.004Z,41.30
2018-07-19T12:39:01.467Z,41.30
2018-07-19T12:41:29.872Z,41.10
2018-07-19T12:43:58.332Z,39.60
2018-07-19T12:46:26.771Z,40.00
2018-07-19T12:48:55.251Z,39.70
2018-07-19T12:51:23.667Z,40.10
2018-07-19T12:56:20.232Z,40.60
2018-07-19T12:58:48.657Z,40.80
2018-07-19T13:01:17.335Z,39.20
2018-07-19T13:03:45.760Z,39.10
2018-07-19T13:06:14.188Z,39.20
2018-07-19T13:08:42.638Z,39.90
2018-07-19T13:13:39.240Z,41.40
2018-07-19T13:16:07.915Z,41.20
2018-07-19T13:18:36.348Z,40.10
2018-07-19T13:21:04.789Z,40.20
2018-07-19T13:23:33.224Z,41.50
2018-07-19T13:26:01.751Z,40.40
2018-07-19T13:28:30.188Z,41.00
2018-07-19T13:33:26.795Z,40.30
2018-07-19T13:35:55.235Z,39.20
2018-07-19T13:38:23.696Z,39.50
2018-07-19T13:40:52.509Z,40.60
2018-07-19T13:43:21.006Z,39.20
2018-07-19T13:45:49.440Z,40.20
2018-07-19T13:48:17.939Z,39.40
2018-07-19T13:50:46.348Z,39.90
2018-07-19T13:53:36.844Z,40.30
2018-07-19T13:56:06.550Z,41.00
2018-07-19T13:58:35.659Z,39.90
2018-07-19T14:01:04.204Z,40.00
2018-07-19T14:03:32.824Z,40.00
2018-07-19T14:06:01.901Z,39.70
2018-07-19T14:08:30.378Z,39.80
2018-07-19T14:10:58.821Z,39.90
2018-07-19T14:13:27.282Z,40.30
2018-07-19T14:15:55.718Z,39.00
2018-07-19T14:18:24.168Z,39.00
2018-07-19T14:20:52.628Z,38.90
2018-07-19T14:23:21.088Z,39.70
2018-07-19T14:25:49.515Z,39.00
2018-07-19T14:28:17.997Z,38.90
2018-07-19T14:30:46.438Z,39.60
2018-07-19T14:33:14.924Z,40.70
2018-07-19T14:35:43.368Z,40.40
2018-07-19T14:38:11.810Z,40.70
2018-07-19T14:40:40.272Z,39.80
2018-07-19T14:43:08.715Z,40.20
2018-07-19T14:45:37.195Z,40.50
2018-07-19T14:48:05.656Z,39.80
2018-07-19T14:50:34.116Z,40.30
2018-07-19T14:53:02.567Z,40.50
2018-07-19T14:55:31.016Z,39.90
2018-07-19T14:57:59.451Z,40.30
2018-07-19T15:00:28.011Z,39.80
2018-07-19T15:02:56.452Z,40.20
2018-07-19T15:05:24.923Z,40.10
2018-07-19T15:07:53.351Z,40.80
2018-07-19T15:10:21.795Z,40.90
2018-07-19T15:12:50.209Z,41.10
2018-07-19T15:15:18.661Z,41.20
2018-07-19T15:17:47.072Z,41.50
2018-07-19T15:20:15.547Z,41.00
2018-07-19T15:22:43.973Z,41.40
2018-07-19T15:25:12.408Z,39.80
2018-07-19T15:27:40.843Z,39.20
2018-07-19T15:30:09.263Z,40.10
2018-07-19T15:32:37.711Z,40.90
2018-07-19T15:35:06.204Z,40.00
2018-07-19T15:37:34.690Z,40.70
2018-07-19T15:40:03.158Z,39.90
2018-07-19T15:42:31.595Z,40.90
2018-07-19T15:45:00.054Z,42.30
2018-07-19T15:47:28.508Z,45.10
2018-07-19T15:49:56.928Z,43.00
2018-07-19T15:52:25.356Z,43.30
2018-07-19T15:54:53.778Z,42.60
2018-07-19T15:57:22.221Z,42.10
2018-07-19T15:59:50.649Z,42.20
2018-07-19T16:02:19.107Z,42.10
2018-07-19T16:04:48.363Z,41.20
2018-07-19T16:07:16.811Z,41.30
2018-07-19T16:09:45.912Z,41.30
2018-07-19T16:12:14.377Z,41.30
2018-07-19T16:14:42.847Z,41.40
2018-07-19T16:17:11.289Z,40.70
2018-07-19T16:19:39.740Z,41.50
2018-07-19T16:22:08.189Z,41.60
2018-07-19T16:24:36.650Z,41.80
2018-07-19T16:27:05.107Z,42.30
2018-07-19T16:32:01.721Z,42.80
2018-07-19T16:34:30.173Z,42.50
2018-07-19T16:36:58.604Z,42.10
2018-07-19T16:39:27.056Z,42.50
2018-07-19T16:41:55.471Z,43.00
2018-07-19T16:44:23.923Z,42.70
2018-07-19T16:46:52.364Z,42.80
2018-07-19T16:49:20.821Z,42.80
2018-07-19T16:51:49.257Z,42.90
2018-07-19T16:54:17.783Z,42.80
2018-07-19T16:56:46.231Z,43.10
2018-07-19T16:59:14.664Z,43.30
2018-07-19T17:01:43.124Z,43.10
2018-07-19T17:04:11.544Z,43.10
2018-07-19T17:06:39.993Z,43.00
2018-07-19T17:09:09.921Z,42.90
2018-07-19T17:11:38.396Z,44.90
2018-07-19T17:16:35.164Z,43.80
2018-07-19T17:19:03.619Z,44.50
2018-07-19T17:21:32.072Z,44.00
2018-07-19T17:24:00.504Z,44.80
2018-07-19T17:26:28.969Z,45.10
2018-07-19T17:28:57.793Z,45.40
2018-07-19T17:31:26.246Z,45.40
2018-07-19T17:33:54.680Z,45.50
2018-07-19T17:36:23.137Z,45.90
2018-07-19T17:38:51.567Z,46.90
2018-07-19T17:41:20.079Z,48.00
2018-07-19T17:43:48.513Z,48.50
2018-07-19T17:46:17.451Z,49.30
2018-07-19T17:48:45.889Z,50.50
2018-07-19T17:51:14.357Z,51.40
2018-07-19T17:53:42.816Z,49.50
2018-07-19T17:56:11.305Z,48.40
2018-07-19T17:58:39.764Z,48.40
2018-07-19T18:01:08.583Z,48.40
2018-07-19T18:03:43.652Z,49.60
2018-07-19T18:06:12.091Z,49.10
2018-07-19T18:08:40.574Z,49.90
2018-07-19T18:11:09.001Z,51.80
2018-07-19T18:13:37.484Z,54.60
2018-07-19T18:16:05.911Z,56.00
2018-07-19T18:18:34.358Z,56.50
2018-07-19T18:21:02.793Z,56.30
2018-07-19T18:23:31.229Z,55.20
2018-07-19T18:25:59.647Z,56.80
2018-07-19T18:28:28.088Z,58.30
2018-07-19T18:30:56.528Z,59.80
2018-07-19T18:33:24.960Z,61.20
2018-07-19T18:35:53.376Z,63.30
2018-07-19T18:38:21.808Z,64.30
2018-07-19T18:40:50.459Z,64.70
2018-07-19T18:43:18.891Z,63.40
2018-07-19T18:45:47.301Z,64.80
2018-07-19T18:48:15.738Z,64.00
2018-07-19T18:50:44.155Z,64.50
2018-07-19T18:53:12.596Z,64.50
2018-07-19T18:55:41.020Z,66.00
2018-07-19T18:58:09.441Z,66.10
2018-07-19T19:00:37.891Z,67.10
2018-07-19T19:03:06.671Z,67.10
2018-07-19T19:05:35.260Z,67.40
2018-07-19T19:08:04.069Z,67.20
2018-07-19T19:10:32.500Z,68.10
2018-07-19T19:13:00.957Z,67.70
2018-07-19T19:15:29.419Z,67.60
2018-07-19T19:17:57.887Z,68.60
2018-07-19T19:20:26.363Z,68.60
2018-07-19T19:22:54.787Z,69.40
2018-07-19T19:25:23.243Z,69.90
2018-07-19T19:27:51.668Z,70.10
2018-07-19T19:30:20.123Z,69.90
2018-07-19T19:32:48.552Z,70.50
2018-07-19T19:35:17.012Z,70.10
2018-07-19T19:37:45.435Z,70.50
2018-07-19T19:40:13.964Z,70.90
2018-07-19T19:42:42.400Z,71.80
2018-07-19T19:45:10.889Z,72.40
2018-07-19T19:47:39.311Z,72.60
2018-07-19T19:50:07.800Z,73.10
2018-07-19T19:52:36.253Z,74.10
2018-07-19T19:55:04.744Z,75.00
2018-07-19T19:57:33.191Z,75.10
2018-07-19T20:00:01.641Z,75.40
2018-07-19T20:02:30.093Z,76.20
2018-07-19T20:04:58.547Z,74.90
2018-07-19T20:07:28.376Z,75.20
2018-07-19T20:09:56.853Z,76.90
2018-07-19T20:12:25.288Z,77.90
2018-07-19T20:14:53.732Z,78.30
2018-07-19T20:17:22.182Z,79.00
2018-07-19T20:19:50.627Z,79.90
2018-07-19T20:22:19.127Z,80.10
2018-07-19T20:24:47.564Z,80.50
2018-07-19T20:27:16.011Z,80.00
2018-07-19T20:29:44.481Z,80.10
2018-07-19T20:32:12.956Z,80.00
2018-07-19T20:34:41.395Z,78.70
2018-07-19T20:37:09.844Z,80.40
2018-07-19T20:39:38.273Z,81.70
2018-07-19T20:42:06.776Z,81.80
2018-07-19T20:44:35.218Z,81.80
2018-07-19T20:47:03.709Z,83.20
2018-07-19T20:49:32.143Z,85.00
2018-07-19T20:52:00.596Z,84.10
2018-07-19T20:54:29.041Z,84.50
2018-07-19T20:56:57.491Z,85.90
2018-07-19T20:59:25.930Z,85.70
2018-07-19T21:01:54.391Z,86.00
2018-07-19T21:04:22.815Z,86.10
2018-07-19T21:06:51.248Z,85.90
2018-07-19T21:09:19.715Z,86.60
2018-07-19T21:11:48.153Z,86.80
2018-07-19T21:14:16.620Z,89.40
2018-07-19T21:16:45.044Z,90.80
2018-07-19T21:19:13.501Z,90.90
2018-07-19T21:21:41.940Z,90.90
2018-07-19T21:24:10.494Z,90.90
2018-07-19T21:26:38.922Z,91.60
2018-07-19T21:29:07.368Z,91.60
2018-07-19T21:31:35.792Z,91.30
2018-07-19T21:34:04.302Z,91.20
2018-07-19T21:36:32.745Z,91.50
2018-07-19T21:39:01.191Z,92.80
2018-07-19T21:41:29.630Z,94.30
2018-07-19T21:43:58.071Z,95.50
2018-07-19T21:46:26.548Z,97.50
2018-07-19T21:48:54.991Z,98.40
2018-07-19T21:51:23.436Z,99.40
2018-07-19T21:53:51.875Z,99.90
2018-07-19T21:56:20.340Z,99.90
2018-07-19T21:58:48.800Z,99.90
2018-07-19T22:01:17.236Z,99.90
2018-07-19T22:03:45.672Z,99.90
2018-07-19T22:06:14.135Z,99.90
2018-07-19T22:08:42.566Z,99.90
2018-07-19T22:13:39.105Z,99.90
2018-07-19T22:16:07.579Z,99.90
2018-07-19T22:18:36.005Z,99.90
2018-07-19T22:21:04.443Z,99.90
2018-07-19T22:23:32.895Z,99.90
2018-07-19T22:26:01.358Z,99.90
2018-07-19T22:28:29.756Z,99.90
2018-07-19T22:30:58.183Z,99.90
2018-07-19T22:35:54.721Z,99.90
2018-07-19T22:38:23.149Z,99.90
2018-07-19T22:40:51.582Z,99.90
2018-07-19T22:43:19.987Z,99.90
2018-07-19T22:45:48.436Z,99.90
2018-07-19T22:48:16.852Z,99.90
2018-07-19T22:50:45.258Z,99.90
2018-07-19T22:53:13.684Z,99.90
2018-07-19T22:55:42.101Z,99.90
2018-07-19T22:58:10.524Z,99.90
2018-07-19T23:00:38.948Z,99.90
2018-07-19T23:03:07.479Z,99.90
2018-07-19T23:05:35.899Z,99.90
2018-07-19T23:08:04.401Z,99.90
2018-07-19T23:10:32.898Z,99.90
2018-07-19T23:13:01.379Z,99.90
2018-07-19T23:15:29.809Z,99.90
2018-07-19T23:17:58.259Z,99.90
2018-07-19T23:20:26.686Z,99.90
2018-07-19T23:22:56.848Z,99.90
2018-07-19T23:25:25.375Z,99.90
2018-07-19T23:27:54.466Z,99.90
2018-07-19T23:30:25.496Z,99.90
2018-07-19T23:32:53.988Z,99.90
2018-07-19T23:35:24.307Z,99.90
2018-07-19T23:37:54.440Z,99.90
2018-07-19T23:40:27.107Z,99.90
2018-07-19T23:42:59.716Z,99.90
2018-07-19T23:46:31.432Z,99.90
2018-07-19T23:49:04.088Z,99.90
2018-07-19T23:51:32.516Z,99.90
2018-07-19T23:54:00.968Z,99.90
2018-07-19T23:56:29.408Z,99.90
2018-07-19T23:58:57.891Z,99.90
